| Date | Time | Temp. (oF) | Dew Point (oF) | Rel. Hum. (%) | Press. (in.) | Wind Dir. | Wind Speed (mph) | Hourly Rainfall (in.) |
|
|---|---|---|---|---|---|---|---|---|---|
| 1 | 12/02 | 00:00 | 29 | 27 | 95 | 30.27 | NE | 1 | 0.00 |
| 2 | 12/01 | 23:00 | 29 | 28 | 98 | 30.26 | NE | 2 | 0.00 |
| 3 | 12/01 | 22:00 | 31 | 28 | 92 | 30.27 | N | 1 | 0.00 |
| 4 | 12/01 | 21:00 | 32 | 29 | 90 | 30.26 | N | 0 | 0.00 |
| 5 | 12/01 | 20:00 | 34 | 29 | 82 | 30.24 | N | 1 | 0.00 |
| 6 | 12/01 | 19:00 | 37 | 29 | 73 | 30.24 | N | 0 | 0.00 |
| 7 | 12/01 | 18:00 | 42 | 29 | 60 | 30.21 | NNW | 0 | 0.00 |
| 8 | 12/01 | 17:00 | 45 | 29 | 54 | 30.20 | WNW | 2 | 0.00 |
| 9 | 12/01 | 16:00 | 48 | 29 | 49 | 30.18 | NW | 4 | 0.00 |
| 10 | 12/01 | 15:00 | 50 | 31 | 49 | 30.17 | NNW | 5 | 0.00 |
| 11 | 12/01 | 14:00 | 50 | 29 | 46 | 30.18 | N | 12 | 0.00 |
| 12 | 12/01 | 13:00 | 50 | 30 | 47 | 30.18 | NW | 4 | 0.00 |
| 13 | 12/01 | 12:00 | 49 | 30 | 48 | 30.20 | NW | 5 | 0.00 |
| 14 | 12/01 | 11:00 | 47 | 33 | 59 | 30.21 | N | 4 | 0.00 |
| 15 | 12/01 | 10:00 | 46 | 34 | 63 | 30.22 | NW | 10 | 0.00 |
| 16 | 12/01 | 09:00 | 40 | 38 | 94 | 30.21 | W | 4 | 0.00 |
| 17 | 12/01 | 08:00 | 35 | 35 | 100 | 30.18 | WNW | 1 | 0.00 |
| 18 | 12/01 | 07:00 | 35 | 35 | 100 | 30.15 | NW | 4 | 0.00 |
| 19 | 12/01 | 06:00 | 35 | 35 | 100 | 30.12 | WNW | 2 | 0.00 |
| 20 | 12/01 | 05:00 | 37 | 36 | 97 | 30.10 | W | 1 | 0.00 |
| 21 | 12/01 | 04:00 | 38 | 37 | 98 | 30.07 | WNW | 2 | 0.00 |
| 22 | 12/01 | 03:00 | 39 | 39 | 100 | 30.06 | WSW | 1 | 0.00 |
| 23 | 12/01 | 02:00 | 40 | 40 | 100 | 30.05 | WNW | 1 | 0.00 |
| 24 | 12/01 | 01:00 | 41 | 40 | 99 | 30.02 | WNW | 1 | 0.00 |